This is the latest recevied weather packets stored in our database for station/object VK4JLM-1. If no packets are shown the sender has not sent any weather packets the latest 10 day(s).
| Time | Temp. | Humidity | Pressure | Rain* | Wind** | Luminosity | Snow |
|---|---|---|---|---|---|---|---|
| 1777623786 | 20.56° C | 84% | 1024.5 hPa | 0 mm | - | - | - |
| 1777622691 | 21.11° C | 81% | 1024.5 hPa | 0 mm | - | - | - |
| 1777621591 | 21.67° C | 78% | 1024.3 hPa | 0 mm | - | - | - |
| 1777619506 | 22.78° C | 74% | 1024.2 hPa | 0 mm | - | - | - |
| 1777618434 | 23.33° C | 73% | 1023.9 hPa | 0 mm | - | - | - |
| 1777617346 | 23.89° C | 70% | 1023.7 hPa | 0 mm | - | - | - |
| 1777616366 | 23.89° C | 70% | 1023.7 hPa | 0 mm | - | - | - |
| 1777615321 | 25° C | 65% | 1023.7 hPa | 0 mm | - | - | - |
| 1777614156 | 24.44° C | 67% | 1023.7 hPa | 0 mm | - | - | - |
| 1777613086 | 25.56° C | 64% | 1023.7 hPa | 0 mm | - | - | - |
| 1777612074 | 27.22° C | 60% | 1023.6 hPa | 0 mm | - | - | - |
| 1777610901 | 27.78° C | 57% | 1023.8 hPa | 0 mm | - | - | - |
| 1777609836 | 26.67° C | 60% | 1023.9 hPa | 0 mm | - | - | - |
| 1777608761 | 31.11° C | 48% | 1023.8 hPa | 0 mm | - | - | - |
| 1777607706 | 29.44° C | 51% | 1023.9 hPa | 0 mm | - | - | - |
| 1777606666 | 30° C | 50% | 1024.2 hPa | 0 mm | - | - | - |
| 1777603331 | 29.44° C | 54% | 1024.9 hPa | 0 mm | - | - | - |
| 1777602236 | 28.89° C | 57% | 1025.3 hPa | 0 mm | - | - | - |
| 1777601146 | 30.56° C | 52% | 1025.6 hPa | 0 mm | - | - | - |
| 1777600076 | 25.56° C | 65% | 1026.1 hPa | 0 mm | - | - | - |
| 1777598931 | 23.89° C | 71% | 1026.5 hPa | 0 mm | - | - | - |
| 1777597911 | 24.44° C | 73% | 1026.9 hPa | 0 mm | - | - | - |
| 1777596936 | 25.56° C | 70% | 1027 hPa | 0 mm | - | - | - |
| 1777595836 | 28.33° C | 60% | 1027.1 hPa | 0 mm | - | - | - |
| 1777594806 | 30° C | 57% | 1027.3 hPa | 0 mm | - | - | - |
* Rain latest hour (hover to see other rain measurements)
** Current wind speed in m/s (hover to see current wind gust speed)